Impacts METAR Board
IDs:

KDTW - Detroit Metro/Wayne, MI, US

Updated at: 0300 UTC 10 Dec 2022
Potential Impact None Slight Moderate High
Time 09/15Z 09/16Z 09/17Z 09/18Z 09/19Z 09/20Z 09/21Z 09/22Z 09/23Z 10/00Z 10/01Z 10/02Z 10/03Z
Temp34 35 35 36 36 37 37 37 37 37 36 35 35
Dewpt27 28 28 28 28 28 27 27 28 28 26 26 26
Altim30.34 30.33 30.30 30.27 30.26 30.27 30.24 30.26 30.28 30.27 30.27 30.27 30.27
VIS10 10 10 10 10 10 10 10 10 10 10 9 10
CIG13 31 28 28 26 24 24 24 27 24 23 22 21
CoverOVCOVCOVCOVCOVCOVCOVCOVCOVCOVCOVCOVCOVC
FltCatMVFRVFRMVFRMVFRMVFRMVFRMVFRMVFRMVFRMVFRMVFRMVFRMVFR
WX-----------------------SN--
WDir60706080708070605060706060
WSpd11 10 9 11 11 8 17 10 10 13 15 18 13
WGst-- -- -- 17 18 16 24 21 -- 21 22 25 23
Raw hourly METARs
KDTW 091453Z 06011KT 10SM OVC013 01/M03 A3034 RMK AO2 SLP280 T00111028 50000 PNO
KDTW 091553Z 07010KT 10SM FEW012 OVC031 02/M02 A3033 RMK AO2 SLP278 T00171022 PNO
KDTW 091653Z 06009KT 10SM FEW012 OVC028 02/M02 A3030 RMK AO2 SLP267 T00171022 PNO
KDTW 091753Z 08011G17KT 10SM FEW012 OVC028 02/M02 A3027 RMK AO2 SLP258 T00221022 10022 20000 58021 PNO
KDTW 091853Z 07011G18KT 10SM FEW012 OVC026 02/M02 A3026 RMK AO2 SLP254 T00221022 PNO
KDTW 091953Z 08008G16KT 10SM FEW012 OVC024 03/M02 A3027 RMK AO2 SLP255 T00281022 PNO
KDTW 092053Z 07017G24KT 10SM FEW012 OVC024 03/M03 A3024 RMK AO2 PK WND 06026/2033 SLP246 T00281028 58012 PNO
KDTW 092153Z 06010G21KT 10SM OVC024 03/M03 A3026 RMK AO2 SLP255 T00281028 PNO
KDTW 092253Z 05010KT 10SM OVC027 03/M02 A3028 RMK AO2 SLP258 T00281022 PNO
KDTW 092353Z 06013G21KT 10SM OVC024 03/M02 A3027 RMK AO2 SLP256 T00281022 10033 20017 50009 PNO
KDTW 100053Z 07015G22KT 10SM OVC023 02/M03 A3027 RMK AO2 SLP257 T00221033 PNO
KDTW 100153Z 06018G25KT 9SM -SN OVC022 02/M03 A3027 RMK AO2 SNB48 SLP257 T00171033 PNO
KDTW 100253Z 06013G23KT 10SM OVC021 02/M03 A3027 RMK AO2 SNE23 SLP256 T00171033 50000 PNO



Page loaded:  03:26 UTC  |   07:26 PM Pacific  |   08:26 PM Mountain  |   09:26 PM Central  |   10:26 PM Eastern

 

ADVISORIES

FORECASTS

FORECASTS

OBSERVATIONS

USER TOOLS

ABOUT US